createdAt,value
2019-05-01T00:02:05.690Z,71.90
2019-05-01T00:04:39.426Z,69.60
2019-05-01T00:07:13.620Z,69.60
2019-05-01T00:09:47.373Z,68.02
2019-05-01T00:12:21.108Z,69.13
2019-05-01T00:14:54.819Z,71.07
2019-05-01T00:17:28.548Z,71.07
2019-05-01T00:20:03.306Z,71.59
2019-05-01T00:22:37.037Z,71.59
2019-05-01T00:25:10.898Z,70.85
2019-05-01T00:27:44.838Z,70.85
2019-05-01T00:30:29.259Z,69.37
2019-05-01T00:32:53.963Z,69.61
2019-05-01T00:35:27.670Z,69.61
2019-05-01T00:38:01.395Z,70.64
2019-05-01T00:40:35.090Z,69.01
2019-05-01T00:43:08.802Z,67.59
2019-05-01T00:45:42.520Z,68.98
2019-05-01T00:48:16.278Z,70.57
2019-05-01T00:50:50.013Z,70.57
2019-05-01T00:53:23.716Z,68.78
2019-05-01T00:55:57.425Z,68.77
2019-05-01T00:58:31.146Z,69.27
2019-05-01T01:01:04.937Z,72.42
2019-05-01T01:03:38.645Z,72.42
2019-05-01T01:06:12.363Z,72.54
2019-05-01T01:08:46.077Z,71.94
2019-05-01T01:11:19.794Z,72.02
2019-05-01T01:13:53.513Z,71.92
2019-05-01T01:16:27.499Z,71.92
2019-05-01T01:19:01.203Z,70.97
2019-05-01T01:21:34.932Z,71.17
2019-05-01T01:24:08.654Z,71.17
2019-05-01T01:26:42.362Z,71.15
2019-05-01T01:29:16.060Z,71.15
2019-05-01T01:32:09.182Z,73.09
2019-05-01T01:34:42.871Z,73.09
2019-05-01T01:37:16.591Z,73.74
2019-05-01T01:39:50.285Z,73.38
2019-05-01T01:42:24.030Z,72.93
2019-05-01T01:44:57.738Z,71.51
2019-05-01T01:47:31.441Z,71.85
2019-05-01T01:50:06.419Z,71.85
2019-05-01T01:52:40.147Z,71.03
2019-05-01T01:55:13.981Z,71.03
2019-05-01T01:57:47.710Z,70.65
2019-05-01T02:00:21.422Z,69.30
2019-05-01T02:02:55.184Z,70.61
2019-05-01T02:05:28.878Z,69.71
2019-05-01T02:08:02.589Z,69.49
2019-05-01T02:10:43.012Z,70.78
2019-05-01T02:13:11.769Z,70.78
2019-05-01T02:15:45.449Z,71.36
2019-05-01T02:18:19.164Z,70.90
2019-05-01T02:20:52.863Z,70.90
2019-05-01T02:23:26.574Z,72.37
2019-05-01T02:26:00.351Z,73.19
2019-05-01T02:28:34.047Z,73.66
2019-05-01T02:31:07.753Z,72.27
2019-05-01T02:33:41.458Z,70.89
2019-05-01T02:36:15.507Z,70.46
2019-05-01T02:38:49.228Z,70.63
2019-05-01T02:41:24.573Z,70.33
2019-05-01T02:44:04.616Z,70.78
2019-05-01T02:46:39.379Z,70.78
2019-05-01T02:49:25.409Z,71.01
2019-05-01T02:51:59.147Z,69.86
2019-05-01T02:54:33.417Z,69.86
2019-05-01T02:57:07.508Z,68.33
2019-05-01T02:59:43.122Z,68.33
2019-05-01T03:02:17.011Z,70.54
2019-05-01T03:04:51.342Z,71.67
2019-05-01T03:07:25.070Z,71.67
2019-05-01T03:09:59.040Z,71.71
2019-05-01T03:12:32.817Z,71.47
2019-05-01T03:15:06.602Z,72.60
2019-05-01T03:17:40.315Z,72.60
2019-05-01T03:20:14.031Z,72.04
2019-05-01T03:22:47.734Z,70.82
2019-05-01T03:25:21.436Z,70.82
2019-05-01T03:27:55.175Z,70.91
2019-05-01T03:30:28.897Z,71.27
2019-05-01T03:33:03.642Z,70.34
2019-05-01T03:35:37.343Z,70.34
2019-05-01T03:38:11.125Z,68.84
2019-05-01T03:40:44.854Z,68.84
2019-05-01T03:43:18.567Z,70.07
2019-05-01T03:45:52.365Z,68.92
2019-05-01T03:48:26.173Z,68.92
2019-05-01T03:50:59.898Z,69.96
2019-05-01T03:53:33.994Z,69.96
2019-05-01T03:56:07.683Z,69.34
2019-05-01T03:58:41.387Z,68.27
2019-05-01T04:01:15.100Z,68.93
2019-05-01T04:03:49.151Z,68.48
2019-05-01T04:06:22.929Z,68.48
2019-05-01T04:08:56.645Z,67.84
2019-05-01T04:11:30.421Z,67.96
2019-05-01T04:14:04.665Z,68.26
2019-05-01T04:16:38.380Z,68.26
2019-05-01T04:19:12.147Z,70.97
2019-05-01T04:21:45.849Z,70.43
2019-05-01T04:24:19.559Z,69.68
2019-05-01T04:26:53.280Z,69.96
2019-05-01T04:29:27.000Z,70.17
2019-05-01T04:32:00.919Z,70.17
2019-05-01T04:34:34.639Z,69.41
2019-05-01T04:37:08.334Z,69.41
2019-05-01T04:39:42.052Z,68.25
2019-05-01T04:42:15.791Z,70.36
2019-05-01T04:44:49.500Z,71.10
2019-05-01T04:47:23.218Z,70.83
2019-05-01T04:49:56.917Z,70.83
2019-05-01T04:52:30.617Z,70.21
2019-05-01T04:55:05.265Z,70.16
2019-05-01T04:57:38.994Z,70.16
2019-05-01T05:00:12.696Z,69.50
2019-05-01T05:02:46.403Z,68.50
2019-05-01T05:05:20.103Z,68.19
2019-05-01T05:07:54.297Z,69.40
2019-05-01T05:10:28.008Z,69.06
2019-05-01T05:13:01.710Z,69.06
2019-05-01T05:15:35.415Z,67.98
2019-05-01T05:18:09.128Z,67.98
2019-05-01T05:20:42.835Z,66.57
2019-05-01T05:23:16.559Z,66.57
2019-05-01T05:25:50.338Z,66.80
2019-05-01T05:28:24.043Z,68.28
2019-05-01T05:30:57.759Z,68.46
2019-05-01T05:33:32.622Z,69.51
2019-05-01T05:36:06.482Z,68.56
2019-05-01T05:38:40.205Z,69.04
2019-05-01T05:41:13.936Z,67.71
2019-05-01T05:43:47.652Z,67.71
2019-05-01T05:46:21.372Z,68.24
2019-05-01T05:48:55.064Z,68.24
2019-05-01T05:51:28.870Z,69.59
2019-05-01T05:54:02.565Z,68.67
2019-05-01T05:56:36.276Z,66.72
2019-05-01T05:59:10.055Z,66.83
2019-05-01T06:01:44.918Z,67.02
2019-05-01T06:04:18.706Z,67.02
2019-05-01T06:06:53.352Z,68.18
2019-05-01T06:09:28.082Z,67.93
2019-05-01T06:12:04.899Z,67.61
2019-05-01T06:14:37.245Z,67.41
2019-05-01T06:17:10.954Z,66.20
2019-05-01T06:19:45.859Z,65.81
2019-05-01T06:22:20.069Z,65.92
2019-05-01T06:24:53.784Z,65.93
2019-05-01T06:27:27.494Z,65.93
2019-05-01T06:30:01.202Z,66.82
2019-05-01T06:32:36.261Z,66.82
2019-05-01T06:35:10.063Z,65.97
2019-05-01T06:38:00.710Z,65.97
2019-05-01T06:40:37.071Z,67.45
2019-05-01T06:43:27.271Z,67.45
2019-05-01T06:46:01.161Z,65.49
2019-05-01T06:48:34.897Z,65.49
2019-05-01T06:51:08.598Z,65.89
2019-05-01T06:53:42.308Z,65.02
2019-05-01T06:56:16.122Z,64.43
2019-05-01T06:58:51.048Z,64.05
2019-05-01T07:01:25.272Z,64.46
2019-05-01T07:04:06.150Z,64.46
2019-05-01T07:06:34.835Z,64.89
2019-05-01T07:09:11.948Z,65.65
2019-05-01T07:11:47.738Z,65.40
2019-05-01T07:14:19.491Z,64.45
2019-05-01T07:16:53.241Z,64.06
2019-05-01T07:19:26.988Z,64.63
2019-05-01T07:22:01.804Z,64.05
2019-05-01T07:24:36.135Z,63.95
2019-05-01T07:27:09.883Z,63.95
2019-05-01T07:29:45.032Z,64.60
2019-05-01T07:32:19.111Z,65.17
2019-05-01T07:34:56.962Z,65.17
2019-05-01T07:37:28.240Z,63.67
2019-05-01T07:40:02.001Z,64.13
2019-05-01T07:42:35.715Z,63.00
2019-05-01T07:45:09.785Z,63.31
2019-05-01T07:47:43.588Z,62.74
2019-05-01T07:50:17.297Z,62.67
2019-05-01T07:52:52.258Z,62.67
2019-05-01T07:55:26.424Z,63.56
2019-05-01T07:58:00.145Z,64.20
2019-05-01T08:00:47.987Z,63.99
2019-05-01T08:03:21.707Z,64.00
2019-05-01T08:05:55.406Z,64.00
2019-05-01T08:08:29.119Z,64.48
2019-05-01T08:11:05.354Z,63.92
2019-05-01T08:13:38.316Z,63.92
2019-05-01T08:16:12.011Z,63.46
2019-05-01T08:18:45.823Z,63.91
2019-05-01T08:21:21.254Z,63.91
2019-05-01T08:23:54.968Z,63.98
2019-05-01T08:26:28.706Z,63.08
2019-05-01T08:29:02.970Z,64.12
2019-05-01T08:31:37.859Z,63.64
2019-05-01T08:34:11.568Z,64.83
2019-05-01T08:36:47.176Z,64.83
2019-05-01T08:39:22.885Z,64.40
2019-05-01T08:41:56.602Z,64.04
2019-05-01T08:44:30.857Z,64.04
2019-05-01T08:47:04.708Z,63.67
2019-05-01T08:49:42.196Z,63.85
2019-05-01T08:52:14.149Z,63.55
2019-05-01T08:54:47.899Z,63.89
2019-05-01T08:57:21.639Z,63.96
2019-05-01T08:59:55.654Z,63.58
2019-05-01T09:02:30.868Z,62.96
2019-05-01T09:05:07.146Z,64.58
2019-05-01T09:07:40.928Z,63.08
2019-05-01T09:10:16.992Z,62.79
2019-05-01T09:12:52.072Z,62.27
2019-05-01T09:15:25.551Z,63.13
2019-05-01T09:17:59.265Z,62.46
2019-05-01T09:20:32.978Z,62.46
2019-05-01T09:23:09.498Z,62.48
2019-05-01T09:25:42.138Z,62.48
2019-05-01T09:28:15.978Z,62.21
2019-05-01T09:30:49.697Z,61.67
2019-05-01T09:33:26.207Z,61.68
2019-05-01T09:35:59.331Z,61.68
2019-05-01T09:38:33.064Z,60.79
2019-05-01T09:41:06.846Z,61.51
2019-05-01T09:43:40.626Z,61.51
2019-05-01T09:46:14.486Z,61.11
2019-05-01T09:48:48.343Z,62.20
2019-05-01T09:51:22.045Z,63.06
2019-05-01T09:53:55.751Z,61.15
2019-05-01T09:56:29.499Z,61.15
2019-05-01T09:59:03.217Z,61.42
2019-05-01T10:01:36.931Z,61.03
2019-05-01T10:04:10.649Z,61.03
2019-05-01T10:06:47.597Z,65.24
2019-05-01T10:09:19.879Z,60.67
2019-05-01T10:11:53.659Z,59.28
2019-05-01T10:14:31.528Z,59.28
2019-05-01T10:17:02.776Z,60.32
2019-05-01T10:19:36.500Z,60.91
2019-05-01T10:22:10.222Z,59.95
2019-05-01T10:24:43.944Z,59.57
2019-05-01T10:27:17.661Z,59.59
2019-05-01T10:29:51.402Z,59.71
2019-05-01T10:32:25.106Z,60.71
2019-05-01T10:34:58.902Z,60.71
2019-05-01T10:37:33.568Z,60.58
2019-05-01T10:40:08.327Z,59.51
2019-05-01T10:42:42.051Z,59.62
2019-05-01T10:45:15.762Z,59.62
2019-05-01T10:47:49.505Z,59.72
2019-05-01T10:50:23.226Z,59.72
2019-05-01T10:52:56.922Z,59.02
2019-05-01T10:55:30.700Z,58.60
2019-05-01T10:58:04.488Z,57.81
2019-05-01T11:00:38.205Z,58.43
2019-05-01T11:03:13.001Z,58.43
2019-05-01T11:05:55.637Z,57.42
2019-05-01T11:08:22.154Z,57.42
2019-05-01T11:10:55.953Z,58.08
2019-05-01T11:13:29.701Z,58.08
2019-05-01T11:16:03.482Z,56.24
2019-05-01T11:18:37.311Z,56.11
2019-05-01T11:21:11.028Z,55.58
2019-05-01T11:23:44.759Z,55.58
2019-05-01T11:26:18.597Z,53.63
2019-05-01T11:28:52.298Z,53.63
2019-05-01T11:31:26.116Z,55.52
2019-05-01T11:33:59.839Z,55.41
2019-05-01T11:36:33.574Z,55.27
2019-05-01T11:39:07.337Z,55.38
2019-05-01T11:41:41.068Z,55.06
2019-05-01T11:44:14.782Z,54.95
2019-05-01T11:46:48.512Z,56.33
2019-05-01T11:49:22.314Z,56.33
2019-05-01T11:51:56.102Z,55.56
2019-05-01T11:54:29.862Z,55.09
2019-05-01T11:57:03.672Z,54.64
2019-05-01T11:59:37.394Z,54.64
2019-05-01T12:02:11.244Z,53.74
2019-05-01T12:04:44.997Z,54.49
2019-05-01T12:07:18.703Z,55.15
2019-05-01T12:09:52.407Z,55.15
2019-05-01T12:12:26.124Z,53.28
2019-05-01T12:14:59.896Z,54.21
2019-05-01T12:17:33.630Z,54.21
2019-05-01T12:20:07.402Z,52.35
2019-05-01T12:22:41.446Z,53.98
2019-05-01T12:25:15.167Z,52.49
2019-05-01T12:27:48.894Z,52.34
2019-05-01T12:30:22.697Z,52.34
2019-05-01T12:32:56.398Z,52.92
2019-05-01T12:35:30.144Z,52.92
2019-05-01T12:38:03.974Z,51.52
2019-05-01T12:40:37.747Z,51.79
2019-05-01T12:43:12.377Z,51.79
2019-05-01T12:45:46.384Z,51.23
2019-05-01T12:48:20.130Z,51.36
2019-05-01T12:50:53.961Z,51.36
2019-05-01T12:53:27.693Z,52.00
2019-05-01T12:56:01.415Z,51.36
2019-05-01T12:58:35.126Z,51.76
2019-05-01T13:01:08.870Z,51.57
2019-05-01T13:03:42.557Z,51.54
2019-05-01T13:06:16.279Z,51.54
2019-05-01T13:08:49.985Z,51.28
2019-05-01T13:11:23.782Z,51.28
2019-05-01T13:13:57.593Z,49.55
2019-05-01T13:16:31.329Z,49.59
2019-05-01T13:19:05.117Z,49.59
2019-05-01T13:21:38.929Z,45.91
2019-05-01T13:24:13.815Z,45.91
2019-05-01T13:26:47.563Z,48.52
2019-05-01T13:29:21.266Z,45.80
2019-05-01T13:31:55.038Z,46.46
2019-05-01T13:34:28.749Z,47.65
2019-05-01T13:37:03.491Z,47.65
2019-05-01T13:39:37.378Z,47.86
2019-05-01T13:42:11.095Z,46.80
2019-05-01T13:44:44.811Z,46.44
2019-05-01T13:47:18.555Z,46.44
2019-05-01T13:49:52.278Z,46.72
2019-05-01T13:52:25.991Z,46.72
2019-05-01T13:54:59.741Z,48.68
2019-05-01T13:57:33.512Z,47.64
2019-05-01T14:00:07.391Z,47.64
2019-05-01T14:02:41.106Z,49.30
2019-05-01T14:05:14.811Z,49.30
2019-05-01T14:07:48.532Z,49.98
2019-05-01T14:10:22.336Z,49.45
2019-05-01T14:12:56.091Z,49.68
2019-05-01T14:15:29.937Z,49.22
2019-05-01T14:18:03.656Z,48.00
2019-05-01T14:20:38.209Z,50.61
2019-05-01T14:23:11.939Z,50.61
2019-05-01T14:25:45.732Z,50.18
2019-05-01T14:28:19.473Z,49.20
2019-05-01T14:30:53.222Z,49.20
2019-05-01T14:33:26.986Z,50.28
2019-05-01T14:36:00.754Z,49.99
2019-05-01T14:38:34.483Z,50.30
2019-05-01T14:41:08.206Z,50.27
2019-05-01T14:43:41.992Z,50.27
2019-05-01T14:46:15.694Z,49.62
2019-05-01T14:48:49.442Z,48.05
2019-05-01T14:51:23.194Z,48.05
2019-05-01T14:53:56.897Z,48.29
2019-05-01T14:56:30.648Z,48.10
2019-05-01T14:59:04.499Z,48.35
2019-05-01T15:01:38.204Z,49.35
2019-05-01T15:04:13.121Z,49.35
2019-05-01T15:06:46.823Z,49.93
2019-05-01T15:09:20.752Z,47.17
2019-05-01T15:11:54.470Z,47.17
2019-05-01T15:14:28.199Z,46.45
2019-05-01T15:17:01.925Z,45.58
2019-05-01T15:19:35.629Z,45.58
2019-05-01T15:22:09.318Z,44.47
2019-05-01T15:24:43.130Z,44.46
2019-05-01T15:27:17.155Z,46.35
2019-05-01T15:29:50.865Z,46.35
2019-05-01T15:32:24.601Z,45.42
2019-05-01T15:34:58.333Z,42.99
2019-05-01T15:37:32.071Z,40.96
2019-05-01T15:40:06.153Z,40.96
2019-05-01T15:42:39.873Z,41.43
2019-05-01T15:45:13.574Z,41.29
2019-05-01T15:47:47.325Z,43.04
2019-05-01T15:50:21.051Z,43.04
2019-05-01T15:52:54.751Z,43.69
2019-05-01T15:55:28.485Z,42.70
2019-05-01T15:58:02.291Z,42.70
2019-05-01T16:00:36.078Z,43.15
2019-05-01T16:03:09.799Z,43.15
2019-05-01T16:05:43.512Z,43.18
2019-05-01T16:08:17.269Z,45.07
2019-05-01T16:10:50.979Z,45.07
2019-05-01T16:13:24.782Z,46.17
2019-05-01T16:15:58.520Z,45.85
2019-05-01T16:18:32.240Z,44.97
2019-05-01T16:21:05.968Z,46.10
2019-05-01T16:23:39.653Z,46.19
2019-05-01T16:26:13.352Z,47.28
2019-05-01T16:28:47.086Z,48.21
2019-05-01T16:31:20.808Z,48.21
2019-05-01T16:33:54.526Z,50.88
2019-05-01T16:36:28.266Z,50.88
2019-05-01T16:39:02.027Z,50.72
2019-05-01T16:41:35.738Z,48.70
2019-05-01T16:44:09.644Z,49.09
2019-05-01T16:46:43.656Z,47.26
2019-05-01T16:49:17.372Z,45.72
2019-05-01T16:51:51.104Z,46.70
2019-05-01T16:54:24.812Z,46.70
2019-05-01T16:56:58.593Z,46.41
2019-05-01T16:59:32.310Z,47.36
2019-05-01T17:02:06.020Z,47.36
2019-05-01T17:04:39.756Z,48.72
2019-05-01T17:07:13.543Z,49.22
2019-05-01T17:09:47.338Z,48.04
2019-05-01T17:12:21.184Z,48.65
2019-05-01T17:14:55.000Z,48.65
2019-05-01T17:17:28.724Z,49.87
2019-05-01T17:20:03.107Z,50.38
2019-05-01T17:22:36.826Z,51.97
2019-05-01T17:25:10.543Z,51.78
2019-05-01T17:27:44.281Z,52.36
2019-05-01T17:30:21.284Z,52.33
2019-05-01T17:32:55.105Z,53.05
2019-05-01T17:35:28.916Z,53.05
2019-05-01T17:38:02.701Z,51.99
2019-05-01T17:40:36.438Z,50.86
2019-05-01T17:43:13.506Z,52.34
2019-05-01T17:45:45.603Z,51.45
2019-05-01T17:48:19.633Z,51.45
2019-05-01T17:50:55.156Z,53.54
2019-05-01T17:53:28.859Z,54.50
2019-05-01T17:56:02.590Z,54.50
2019-05-01T17:58:36.301Z,54.38
2019-05-01T18:01:10.064Z,53.92
2019-05-01T18:03:43.788Z,55.17
2019-05-01T18:06:17.513Z,54.64
2019-05-01T18:09:02.509Z,55.98
2019-05-01T18:11:27.167Z,56.52
2019-05-01T18:14:00.907Z,56.52
2019-05-01T18:16:34.639Z,55.86
2019-05-01T18:19:09.900Z,56.27
2019-05-01T18:21:46.785Z,55.73
2019-05-01T18:24:23.179Z,56.90
2019-05-01T18:26:54.913Z,56.90
2019-05-01T18:29:28.622Z,57.30
2019-05-01T18:32:03.061Z,57.30
2019-05-01T18:34:38.342Z,57.14
2019-05-01T18:37:13.826Z,58.02
2019-05-01T18:39:47.544Z,59.00
2019-05-01T18:42:21.240Z,59.23
2019-05-01T18:44:55.016Z,60.19
2019-05-01T18:47:28.832Z,59.56
2019-05-01T18:50:04.211Z,60.27
2019-05-01T18:52:37.930Z,59.40
2019-05-01T18:55:11.730Z,59.40
2019-05-01T18:57:45.467Z,59.51
2019-05-01T19:00:19.172Z,59.43
2019-05-01T19:02:52.898Z,59.00
2019-05-01T19:05:26.633Z,59.62
2019-05-01T19:08:00.463Z,59.62
2019-05-01T19:10:34.164Z,60.57
2019-05-01T19:13:07.886Z,60.57
2019-05-01T19:15:41.627Z,60.67
2019-05-01T19:18:15.386Z,60.32
2019-05-01T19:20:59.403Z,58.81
2019-05-01T19:23:27.948Z,60.83
2019-05-01T19:26:04.948Z,60.72
2019-05-01T19:28:36.311Z,60.43
2019-05-01T19:31:10.040Z,60.40
2019-05-01T19:33:43.898Z,60.40
2019-05-01T19:36:17.639Z,59.95
2019-05-01T19:38:51.363Z,59.91
2019-05-01T19:41:25.099Z,60.42
2019-05-01T19:43:58.813Z,60.91
2019-05-01T19:46:32.532Z,59.58
2019-05-01T19:49:06.245Z,60.24
2019-05-01T19:51:40.023Z,60.21
2019-05-01T19:54:13.776Z,59.16
2019-05-01T19:56:47.560Z,59.16
2019-05-01T19:59:21.419Z,59.16
2019-05-01T20:01:55.250Z,58.39
2019-05-01T20:04:28.999Z,58.67
2019-05-01T20:07:02.831Z,58.76
2019-05-01T20:09:36.639Z,58.76
2019-05-01T20:12:10.344Z,58.44
2019-05-01T20:14:44.057Z,60.26
2019-05-01T20:17:17.944Z,61.55
2019-05-01T20:19:51.680Z,61.55
2019-05-01T20:22:25.405Z,61.39
2019-05-01T20:24:59.124Z,60.53
2019-05-01T20:27:32.844Z,61.03
2019-05-01T20:30:07.226Z,62.32
2019-05-01T20:32:40.930Z,62.32
2019-05-01T20:35:14.722Z,62.65
2019-05-01T20:37:48.418Z,62.00
2019-05-01T20:40:22.226Z,62.72
2019-05-01T20:42:55.936Z,61.59
2019-05-01T20:45:29.666Z,61.93
2019-05-01T20:48:03.506Z,61.35
2019-05-01T20:50:37.235Z,61.35
2019-05-01T20:53:10.946Z,62.16
2019-05-01T20:55:44.784Z,61.82
2019-05-01T20:58:18.518Z,61.89
2019-05-01T21:00:53.604Z,62.61
2019-05-01T21:03:27.710Z,62.65
2019-05-01T21:06:02.882Z,64.08
2019-05-01T21:08:39.261Z,64.66
2019-05-01T21:11:13.063Z,63.72
2019-05-01T21:13:46.858Z,63.72
2019-05-01T21:16:20.593Z,63.42
2019-05-01T21:18:54.315Z,64.53
2019-05-01T21:21:28.034Z,64.70
2019-05-01T21:24:03.561Z,64.70
2019-05-01T21:26:37.352Z,66.14
2019-05-01T21:29:11.070Z,65.98
2019-05-01T21:31:44.862Z,66.39
2019-05-01T21:34:18.599Z,66.08
2019-05-01T21:36:53.923Z,66.08
2019-05-01T21:39:27.907Z,66.85
2019-05-01T21:42:06.605Z,66.94
2019-05-01T21:44:37.037Z,66.94
2019-05-01T21:47:10.735Z,66.97
2019-05-01T21:49:44.571Z,66.97
2019-05-01T21:52:23.055Z,65.23
2019-05-01T21:54:55.201Z,65.23
2019-05-01T21:57:30.581Z,65.34
2019-05-01T22:00:06.205Z,66.08
2019-05-01T22:02:41.502Z,65.95
2019-05-01T22:05:15.401Z,65.95
2019-05-01T22:07:49.117Z,67.29
2019-05-01T22:10:26.577Z,67.29
2019-05-01T22:12:58.266Z,67.05
2019-05-01T22:15:32.054Z,66.38
2019-05-01T22:18:05.768Z,66.38
2019-05-01T22:20:39.545Z,65.19
2019-05-01T22:23:17.014Z,65.30
2019-05-01T22:25:49.450Z,65.26
2019-05-01T22:28:23.169Z,66.23
2019-05-01T22:30:56.882Z,66.01
2019-05-01T22:33:30.621Z,66.01
2019-05-01T22:36:04.331Z,65.89
2019-05-01T22:38:38.127Z,65.12
2019-05-01T22:41:11.829Z,64.93
2019-05-01T22:43:45.543Z,64.89
2019-05-01T22:46:19.253Z,64.54
2019-05-01T22:48:52.974Z,65.60
2019-05-01T22:51:26.686Z,65.14
2019-05-01T22:54:00.408Z,64.97
2019-05-01T22:56:34.145Z,64.97
2019-05-01T22:59:07.849Z,65.19
2019-05-01T23:01:41.554Z,66.93
2019-05-01T23:04:17.058Z,66.93
2019-05-01T23:06:50.675Z,67.29
2019-05-01T23:09:28.532Z,67.43
2019-05-01T23:11:59.922Z,67.02
2019-05-01T23:14:33.669Z,67.02
2019-05-01T23:17:07.389Z,66.47
2019-05-01T23:19:41.111Z,66.10
2019-05-01T23:22:14.824Z,66.10
2019-05-01T23:24:48.537Z,66.31
2019-05-01T23:27:24.387Z,67.66
2019-05-01T23:29:57.648Z,67.66
2019-05-01T23:32:31.374Z,67.41
2019-05-01T23:35:05.855Z,67.49
2019-05-01T23:37:39.558Z,66.72
2019-05-01T23:40:15.641Z,67.87
2019-05-01T23:42:52.850Z,68.13
2019-05-01T23:45:24.095Z,68.13
2019-05-01T23:47:57.841Z,67.11
2019-05-01T23:50:31.551Z,66.07
2019-05-01T23:53:09.045Z,66.28
2019-05-01T23:55:40.662Z,67.38
2019-05-01T23:58:14.369Z,66.72
